createdAt,value
2018-09-24T00:01:48.409Z,9.60
2018-09-24T00:04:16.672Z,9.60
2018-09-24T00:06:44.936Z,9.50
2018-09-24T00:09:13.204Z,9.40
2018-09-24T00:11:41.477Z,9.40
2018-09-24T00:14:09.920Z,9.30
2018-09-24T00:16:38.189Z,9.10
2018-09-24T00:19:06.452Z,9.10
2018-09-24T00:21:34.739Z,9.00
2018-09-24T00:24:03.010Z,9.00
2018-09-24T00:26:31.289Z,9.00
2018-09-24T00:28:59.554Z,9.00
2018-09-24T00:31:27.868Z,9.00
2018-09-24T00:33:56.137Z,9.00
2018-09-24T00:36:24.408Z,9.10
2018-09-24T00:38:52.680Z,9.10
2018-09-24T00:41:20.949Z,9.00
2018-09-24T00:43:49.231Z,9.00
2018-09-24T00:46:17.511Z,9.00
2018-09-24T00:48:45.781Z,9.00
2018-09-24T00:51:14.048Z,8.90
2018-09-24T00:53:42.304Z,8.90
2018-09-24T00:56:10.560Z,8.90
2018-09-24T00:58:38.821Z,8.90
2018-09-24T01:01:07.192Z,8.80
2018-09-24T01:03:35.448Z,8.90
2018-09-24T01:06:03.716Z,8.90
2018-09-24T01:08:31.997Z,8.90
2018-09-24T01:11:00.269Z,8.90
2018-09-24T01:13:28.528Z,8.80
2018-09-24T01:15:56.797Z,8.90
2018-09-24T01:18:25.073Z,8.90
2018-09-24T01:20:53.338Z,8.80
2018-09-24T01:23:21.612Z,8.90
2018-09-24T01:25:49.876Z,8.90
2018-09-24T01:28:18.156Z,8.90
2018-09-24T01:30:46.425Z,8.90
2018-09-24T01:33:14.713Z,8.90
2018-09-24T01:35:42.980Z,8.90
2018-09-24T01:38:11.236Z,8.90
2018-09-24T01:40:39.514Z,8.90
2018-09-24T01:43:07.784Z,8.90
2018-09-24T01:45:36.060Z,8.90
2018-09-24T01:48:04.560Z,8.70
2018-09-24T01:50:32.824Z,8.70
2018-09-24T01:53:02.392Z,8.70
2018-09-24T01:55:30.658Z,8.70
2018-09-24T01:57:58.928Z,8.60
2018-09-24T02:00:27.202Z,8.60
2018-09-24T02:02:55.477Z,8.50
2018-09-24T02:05:23.724Z,8.50
2018-09-24T02:07:52.000Z,8.50
2018-09-24T02:10:22.673Z,8.50
2018-09-24T02:12:52.364Z,8.50
2018-09-24T02:15:27.530Z,8.50
2018-09-24T02:17:55.875Z,8.40
2018-09-24T02:20:24.136Z,8.40
2018-09-24T02:22:52.425Z,8.30
2018-09-24T02:25:20.704Z,8.30
2018-09-24T02:27:49.056Z,8.30
2018-09-24T02:30:18.360Z,8.30
2018-09-24T02:32:46.634Z,8.30
2018-09-24T02:35:15.089Z,8.20
2018-09-24T02:37:43.353Z,8.20
2018-09-24T02:40:20.116Z,8.20
2018-09-24T02:42:48.802Z,8.20
2018-09-24T02:45:17.065Z,8.10
2018-09-24T02:47:45.360Z,8.10
2018-09-24T02:50:13.660Z,8.20
2018-09-24T02:52:41.937Z,8.10
2018-09-24T02:55:12.417Z,8.10
2018-09-24T02:57:40.960Z,8.10
2018-09-24T03:00:09.252Z,8.10
2018-09-24T03:02:37.877Z,8.10
2018-09-24T03:05:06.189Z,8.10
2018-09-24T03:07:34.583Z,8.00
2018-09-24T03:10:02.846Z,8.10
2018-09-24T03:12:31.129Z,8.00
2018-09-24T03:14:59.410Z,7.90
2018-09-24T03:17:27.706Z,7.90
2018-09-24T03:19:55.967Z,7.90
2018-09-24T03:22:25.420Z,7.90
2018-09-24T03:24:54.520Z,7.90
2018-09-24T03:27:23.504Z,7.90
2018-09-24T03:29:51.799Z,7.80
2018-09-24T03:32:20.066Z,7.80
2018-09-24T03:34:48.316Z,7.80
2018-09-24T03:37:16.593Z,7.80
2018-09-24T03:39:44.848Z,7.80
2018-09-24T03:42:13.121Z,7.80
2018-09-24T03:44:41.409Z,7.80
2018-09-24T03:47:09.688Z,7.80
2018-09-24T03:49:37.960Z,7.80
2018-09-24T03:52:06.273Z,7.70
2018-09-24T03:54:34.605Z,7.80
2018-09-24T03:57:02.808Z,7.80
2018-09-24T03:59:31.090Z,7.70
2018-09-24T04:01:59.397Z,7.70
2018-09-24T04:04:32.993Z,7.80
2018-09-24T04:07:06.730Z,7.80
2018-09-24T04:09:40.487Z,7.80
2018-09-24T04:12:14.141Z,7.80
2018-09-24T04:14:47.714Z,7.80
2018-09-24T04:17:21.368Z,7.80
2018-09-24T04:19:55.037Z,7.70
2018-09-24T04:22:28.685Z,7.70
2018-09-24T04:25:02.426Z,7.60
2018-09-24T04:27:36.169Z,7.60
2018-09-24T04:30:09.804Z,7.60
2018-09-24T04:32:43.368Z,7.60
2018-09-24T04:35:17.105Z,7.60
2018-09-24T04:37:50.773Z,7.60
2018-09-24T04:40:24.319Z,7.60
2018-09-24T04:42:57.817Z,7.70
2018-09-24T04:45:31.447Z,7.70
2018-09-24T04:48:05.197Z,7.70
2018-09-24T04:50:38.805Z,7.70
2018-09-24T04:53:12.508Z,7.70
2018-09-24T04:55:46.162Z,7.70
2018-09-24T04:58:19.813Z,7.70
2018-09-24T05:00:53.552Z,7.70
2018-09-24T05:03:27.364Z,7.70
2018-09-24T05:06:01.064Z,7.70
2018-09-24T05:08:34.700Z,7.70
2018-09-24T05:11:08.397Z,7.70
2018-09-24T05:13:42.116Z,7.70
2018-09-24T05:16:15.775Z,7.70
2018-09-24T05:18:49.413Z,7.70
2018-09-24T05:21:23.185Z,7.70
2018-09-24T05:23:56.844Z,7.70
2018-09-24T05:26:30.584Z,7.70
2018-09-24T05:29:04.296Z,7.70
2018-09-24T05:31:37.899Z,7.70
2018-09-24T05:34:11.573Z,7.70
2018-09-24T05:36:45.229Z,7.70
2018-09-24T05:39:18.917Z,7.70
2018-09-24T05:41:52.612Z,7.80
2018-09-24T05:44:26.269Z,7.80
2018-09-24T05:46:59.898Z,7.80
2018-09-24T05:49:33.568Z,7.80
2018-09-24T05:52:07.319Z,7.90
2018-09-24T05:54:40.994Z,7.90
2018-09-24T05:57:14.733Z,7.90
2018-09-24T05:59:48.426Z,7.90
2018-09-24T06:02:22.178Z,7.90
2018-09-24T06:04:55.863Z,7.90
2018-09-24T06:07:29.665Z,7.90
2018-09-24T06:10:03.338Z,8.00
2018-09-24T06:12:36.925Z,8.00
2018-09-24T06:15:10.809Z,8.10
2018-09-24T06:17:44.572Z,8.10
2018-09-24T06:20:18.145Z,8.10
2018-09-24T06:22:51.900Z,8.10
2018-09-24T06:25:25.631Z,8.10
2018-09-24T06:27:59.390Z,8.20
2018-09-24T06:30:33.096Z,8.20
2018-09-24T06:33:06.783Z,8.20
2018-09-24T06:35:40.416Z,8.30
2018-09-24T06:38:14.045Z,8.20
2018-09-24T06:40:47.729Z,8.20
2018-09-24T06:43:22.394Z,8.30
2018-09-24T06:45:56.092Z,8.20
2018-09-24T06:48:29.736Z,8.20
2018-09-24T06:51:03.364Z,8.20
2018-09-24T06:53:36.903Z,8.20
2018-09-24T06:56:10.542Z,8.40
2018-09-24T06:58:44.272Z,8.40
2018-09-24T07:01:18.062Z,8.50
2018-09-24T07:03:51.733Z,8.70
2018-09-24T07:06:25.456Z,8.80
2018-09-24T07:08:59.128Z,8.90
2018-09-24T07:11:32.782Z,8.90
2018-09-24T07:14:06.473Z,8.90
2018-09-24T07:16:40.132Z,8.80
2018-09-24T07:19:13.860Z,8.70
2018-09-24T07:21:47.525Z,8.60
2018-09-24T07:24:21.172Z,8.60
2018-09-24T07:26:54.800Z,8.60
2018-09-24T07:29:28.474Z,8.70
2018-09-24T07:32:02.060Z,8.90
2018-09-24T07:34:35.700Z,8.90
2018-09-24T07:37:09.424Z,9.00
2018-09-24T07:39:43.118Z,9.10
2018-09-24T07:42:16.696Z,9.30
2018-09-24T07:44:50.365Z,9.50
2018-09-24T07:47:24.061Z,9.60
2018-09-24T07:49:57.725Z,9.50
2018-09-24T07:52:31.477Z,9.50
2018-09-24T07:55:05.209Z,9.50
2018-09-24T07:57:38.942Z,9.50
2018-09-24T08:00:12.673Z,9.60
2018-09-24T08:02:46.409Z,9.60
2018-09-24T08:05:20.116Z,9.70
2018-09-24T08:07:53.840Z,9.60
2018-09-24T08:10:27.584Z,9.70
2018-09-24T08:13:01.373Z,9.70
2018-09-24T08:15:34.992Z,9.70
2018-09-24T08:18:08.598Z,9.80
2018-09-24T08:20:42.351Z,10.10
2018-09-24T08:23:16.144Z,10.20
2018-09-24T08:25:49.729Z,10.20
2018-09-24T08:28:23.432Z,10.00
2018-09-24T08:30:57.099Z,9.70
2018-09-24T08:33:30.805Z,9.50
2018-09-24T08:36:04.593Z,9.40
2018-09-24T08:38:38.292Z,9.50
2018-09-24T08:41:11.957Z,9.70
2018-09-24T08:43:45.673Z,9.90
2018-09-24T08:46:19.400Z,9.90
2018-09-24T08:48:53.136Z,9.90
2018-09-24T08:51:26.905Z,9.70
2018-09-24T08:54:00.593Z,9.40
2018-09-24T08:56:34.364Z,9.40
2018-09-24T08:59:07.998Z,9.40
2018-09-24T09:01:41.684Z,9.50
2018-09-24T09:04:15.337Z,9.70
2018-09-24T09:06:48.997Z,9.90
2018-09-24T09:09:22.794Z,10.20
2018-09-24T09:11:56.472Z,10.40
2018-09-24T09:14:30.196Z,10.50
2018-09-24T09:17:03.940Z,10.50
2018-09-24T09:19:37.724Z,10.70
2018-09-24T09:22:11.340Z,10.80
2018-09-24T09:24:45.010Z,10.80
2018-09-24T09:27:18.756Z,11.00
2018-09-24T09:29:52.466Z,11.20
2018-09-24T09:32:26.181Z,11.30
2018-09-24T09:34:59.944Z,11.30
2018-09-24T09:37:33.694Z,11.30
2018-09-24T09:40:07.405Z,11.10
2018-09-24T09:42:41.114Z,11.10
2018-09-24T09:45:14.845Z,11.10
2018-09-24T09:47:48.584Z,10.80
2018-09-24T09:50:22.309Z,10.70
2018-09-24T09:52:56.025Z,10.80
2018-09-24T09:55:29.705Z,10.90
2018-09-24T09:58:03.412Z,11.10
2018-09-24T10:00:37.116Z,11.20
2018-09-24T10:03:10.821Z,10.90
2018-09-24T10:05:44.284Z,10.80
2018-09-24T10:08:18.093Z,10.60
2018-09-24T10:10:51.781Z,10.60
2018-09-24T10:13:25.491Z,10.80
2018-09-24T10:15:59.181Z,10.90
2018-09-24T10:18:32.897Z,11.10
2018-09-24T10:21:06.513Z,11.10
2018-09-24T10:23:40.230Z,11.00
2018-09-24T10:26:14.005Z,10.90
2018-09-24T10:28:47.665Z,10.80
2018-09-24T10:31:21.381Z,10.70
2018-09-24T10:33:55.072Z,10.80
2018-09-24T10:36:28.737Z,11.00
2018-09-24T10:39:02.491Z,11.30
2018-09-24T10:41:36.244Z,11.60
2018-09-24T10:44:09.888Z,11.50
2018-09-24T10:46:43.456Z,11.40
2018-09-24T10:49:17.152Z,11.30
2018-09-24T10:51:50.849Z,11.20
2018-09-24T10:54:24.553Z,11.10
2018-09-24T10:56:58.244Z,11.10
2018-09-24T10:59:31.955Z,11.30
2018-09-24T11:02:05.504Z,11.40
2018-09-24T11:04:38.979Z,11.70
2018-09-24T11:07:12.533Z,12.00
2018-09-24T11:09:46.241Z,12.20
2018-09-24T11:12:19.880Z,12.50
2018-09-24T11:14:53.563Z,12.70
2018-09-24T11:17:27.485Z,12.50
2018-09-24T11:20:08.064Z,12.20
2018-09-24T11:22:41.728Z,12.00
2018-09-24T11:25:15.452Z,11.80
2018-09-24T11:27:49.170Z,11.70
2018-09-24T11:30:22.737Z,11.90
2018-09-24T11:32:56.350Z,12.10
2018-09-24T11:35:30.043Z,12.30
2018-09-24T11:38:03.758Z,12.30
2018-09-24T11:40:37.569Z,12.20
2018-09-24T11:43:11.189Z,12.00
2018-09-24T11:45:44.979Z,11.90
2018-09-24T11:48:18.722Z,11.90
2018-09-24T11:50:52.343Z,11.90
2018-09-24T11:53:26.048Z,11.70
2018-09-24T11:55:59.557Z,11.80
2018-09-24T11:58:33.107Z,11.90
2018-09-24T12:01:06.781Z,11.90
2018-09-24T12:03:40.418Z,11.90
2018-09-24T12:06:13.995Z,11.80
2018-09-24T12:08:47.741Z,11.80
2018-09-24T12:11:21.377Z,11.70
2018-09-24T12:13:54.960Z,11.70
2018-09-24T12:16:28.528Z,11.70
2018-09-24T12:19:02.267Z,11.70
2018-09-24T12:21:35.843Z,11.90
2018-09-24T12:24:09.582Z,12.30
2018-09-24T12:26:43.271Z,12.50
2018-09-24T12:29:16.844Z,12.80
2018-09-24T12:31:50.556Z,12.90
2018-09-24T12:34:24.324Z,12.90
2018-09-24T12:36:57.916Z,12.90
2018-09-24T12:39:31.596Z,12.90
2018-09-24T12:42:05.285Z,12.90
2018-09-24T12:44:38.835Z,12.90
2018-09-24T12:47:12.560Z,12.80
2018-09-24T12:49:46.302Z,12.80
2018-09-24T12:52:20.013Z,13.00
2018-09-24T12:54:53.716Z,13.10
2018-09-24T12:57:27.447Z,12.90
2018-09-24T13:00:01.238Z,12.80
2018-09-24T13:02:34.983Z,12.70
2018-09-24T13:05:08.676Z,12.80
2018-09-24T13:07:42.396Z,12.70
2018-09-24T13:10:16.078Z,12.70
2018-09-24T13:12:49.802Z,12.50
2018-09-24T13:15:23.565Z,12.60
2018-09-24T13:17:57.207Z,12.60
2018-09-24T13:20:30.800Z,12.70
2018-09-24T13:23:04.492Z,12.60
2018-09-24T13:25:38.153Z,12.50
2018-09-24T13:28:11.896Z,12.50
2018-09-24T13:30:45.531Z,12.60
2018-09-24T13:33:19.133Z,12.70
2018-09-24T13:35:52.729Z,12.90
2018-09-24T13:38:26.292Z,13.10
2018-09-24T13:40:59.910Z,13.20
2018-09-24T13:43:33.728Z,13.20
2018-09-24T13:46:07.318Z,13.20
2018-09-24T13:48:41.009Z,13.20
2018-09-24T13:51:14.712Z,13.10
2018-09-24T13:53:48.334Z,13.00
2018-09-24T13:56:22.079Z,12.80
2018-09-24T13:58:55.813Z,12.80
2018-09-24T14:01:29.541Z,12.80
2018-09-24T14:04:03.232Z,12.70
2018-09-24T14:06:36.918Z,12.50
2018-09-24T14:09:12.608Z,12.30
2018-09-24T14:11:46.399Z,12.20
2018-09-24T14:14:20.168Z,12.10
2018-09-24T14:16:53.817Z,11.90
2018-09-24T14:19:27.401Z,11.80
2018-09-24T14:22:01.097Z,11.70
2018-09-24T14:24:34.748Z,11.70
2018-09-24T14:27:08.517Z,11.60
2018-09-24T14:29:42.212Z,11.70
2018-09-24T14:32:15.908Z,11.70
2018-09-24T14:34:49.462Z,11.70
2018-09-24T14:37:23.060Z,11.80
2018-09-24T14:39:56.733Z,11.90
2018-09-24T14:42:30.519Z,12.10
2018-09-24T14:45:04.125Z,12.10
2018-09-24T14:47:37.705Z,11.90
2018-09-24T14:50:11.824Z,11.70
2018-09-24T14:52:45.524Z,11.70
2018-09-24T14:55:19.228Z,11.60
2018-09-24T14:57:52.963Z,11.60
2018-09-24T15:00:26.445Z,11.60
2018-09-24T15:03:00.093Z,11.50
2018-09-24T15:05:33.785Z,11.50
2018-09-24T15:08:07.480Z,11.40
2018-09-24T15:10:41.133Z,11.40
2018-09-24T15:13:14.869Z,11.40
2018-09-24T15:15:48.593Z,11.40
2018-09-24T15:18:22.349Z,11.40
2018-09-24T15:20:56.049Z,11.50
2018-09-24T15:23:29.716Z,11.50
2018-09-24T15:26:03.381Z,11.50
2018-09-24T15:28:37.096Z,11.60
2018-09-24T15:31:10.816Z,11.70
2018-09-24T15:33:44.501Z,11.90
2018-09-24T15:36:18.203Z,12.00
2018-09-24T15:38:51.780Z,12.20
2018-09-24T15:41:25.401Z,12.30
2018-09-24T15:43:59.092Z,12.30
2018-09-24T15:46:32.898Z,12.30
2018-09-24T15:49:06.544Z,12.40
2018-09-24T15:51:40.241Z,12.40
2018-09-24T15:54:14.009Z,12.50
2018-09-24T15:56:47.730Z,12.30
2018-09-24T15:59:21.420Z,12.50
2018-09-24T16:01:55.184Z,12.50
2018-09-24T16:04:28.868Z,12.50
2018-09-24T16:07:02.679Z,12.50
2018-09-24T16:09:36.362Z,12.50
2018-09-24T16:12:10.049Z,12.50
2018-09-24T16:14:43.736Z,12.50
2018-09-24T16:17:17.283Z,12.40
2018-09-24T16:19:50.984Z,12.40
2018-09-24T16:22:24.668Z,12.40
2018-09-24T16:24:58.357Z,12.20
2018-09-24T16:27:32.073Z,12.10
2018-09-24T16:30:05.842Z,11.90
2018-09-24T16:32:39.429Z,11.70
2018-09-24T16:35:13.231Z,11.60
2018-09-24T16:37:46.898Z,11.50
2018-09-24T16:40:20.352Z,11.50
2018-09-24T16:42:53.992Z,11.30
2018-09-24T16:45:27.785Z,11.30
2018-09-24T16:48:01.534Z,11.20
2018-09-24T16:50:35.173Z,11.20
2018-09-24T16:53:08.864Z,11.20
2018-09-24T16:55:42.520Z,11.10
2018-09-24T16:58:16.068Z,11.00
2018-09-24T17:00:49.804Z,11.00
2018-09-24T17:03:23.461Z,11.00
2018-09-24T17:05:56.969Z,10.90
2018-09-24T17:08:30.708Z,10.90
2018-09-24T17:11:04.406Z,10.80
2018-09-24T17:13:38.098Z,10.70
2018-09-24T17:16:11.810Z,10.70
2018-09-24T17:18:45.281Z,10.60
2018-09-24T17:21:19.044Z,10.50
2018-09-24T17:23:52.704Z,10.50
2018-09-24T17:26:26.373Z,10.40
2018-09-24T17:29:00.113Z,10.30
2018-09-24T17:31:33.811Z,10.30
2018-09-24T17:34:07.444Z,10.20
2018-09-24T17:36:41.135Z,10.20
2018-09-24T17:39:14.856Z,10.20
2018-09-24T17:41:48.596Z,10.10
2018-09-24T17:44:22.233Z,10.00
2018-09-24T17:46:55.768Z,10.00
2018-09-24T17:49:29.548Z,9.90
2018-09-24T17:52:03.263Z,9.80
2018-09-24T17:54:36.960Z,9.80
2018-09-24T17:57:10.672Z,9.80
2018-09-24T17:59:44.441Z,9.80
2018-09-24T18:02:18.137Z,9.80
2018-09-24T18:04:51.773Z,9.80
2018-09-24T18:07:25.390Z,9.80
2018-09-24T18:09:59.080Z,9.70
2018-09-24T18:12:32.769Z,9.70
2018-09-24T18:15:06.531Z,9.70
2018-09-24T18:17:40.263Z,9.60
2018-09-24T18:20:13.890Z,9.60
2018-09-24T18:22:47.564Z,9.50
2018-09-24T18:25:21.316Z,9.40
2018-09-24T18:27:55.072Z,9.30
2018-09-24T18:30:28.809Z,9.20
2018-09-24T18:33:02.557Z,9.10
2018-09-24T18:35:36.221Z,9.00
2018-09-24T18:38:09.921Z,9.00
2018-09-24T18:40:43.593Z,8.90
2018-09-24T18:43:17.113Z,8.80
2018-09-24T18:45:50.730Z,8.80
2018-09-24T18:48:24.304Z,8.70
2018-09-24T18:50:57.961Z,8.70
2018-09-24T18:53:31.687Z,8.60
2018-09-24T18:56:05.440Z,8.60
2018-09-24T18:58:39.141Z,8.50
2018-09-24T19:01:13.025Z,8.50
2018-09-24T19:03:46.741Z,8.40
2018-09-24T19:06:20.384Z,8.40
2018-09-24T19:08:54.109Z,8.30
2018-09-24T19:11:28.110Z,8.30
2018-09-24T19:14:01.572Z,8.30
2018-09-24T19:16:35.172Z,8.20
2018-09-24T19:19:08.841Z,8.20
2018-09-24T19:21:42.551Z,8.20
2018-09-24T19:24:16.252Z,8.20
2018-09-24T19:26:49.948Z,8.10
2018-09-24T19:29:23.581Z,8.10
2018-09-24T19:31:57.297Z,8.10
2018-09-24T19:34:31.022Z,8.10
2018-09-24T19:37:04.826Z,8.10
2018-09-24T19:39:38.507Z,8.00
2018-09-24T19:42:12.198Z,8.00
2018-09-24T19:44:45.906Z,8.00
2018-09-24T19:47:19.573Z,8.00
2018-09-24T19:49:53.316Z,8.00
2018-09-24T19:52:27.033Z,7.90
2018-09-24T19:55:00.778Z,7.80
2018-09-24T19:57:34.430Z,7.80
2018-09-24T20:00:08.050Z,7.80
2018-09-24T20:02:41.716Z,7.80
2018-09-24T20:05:15.356Z,7.70
2018-09-24T20:07:49.000Z,7.70
2018-09-24T20:10:22.699Z,7.70
2018-09-24T20:12:56.361Z,7.60
2018-09-24T20:15:30.089Z,7.60
2018-09-24T20:18:03.745Z,7.50
2018-09-24T20:20:37.448Z,7.50
2018-09-24T20:23:11.339Z,7.50
2018-09-24T20:25:45.105Z,7.50
2018-09-24T20:28:18.779Z,7.40
2018-09-24T20:30:52.477Z,7.40
2018-09-24T20:33:26.193Z,7.40
2018-09-24T20:35:59.916Z,7.40
2018-09-24T20:38:33.716Z,7.30
2018-09-24T20:41:07.289Z,7.30
2018-09-24T20:43:41.013Z,7.30
2018-09-24T20:46:14.817Z,7.20
2018-09-24T20:48:48.489Z,7.10
2018-09-24T20:51:22.176Z,7.00
2018-09-24T20:53:55.914Z,7.00
2018-09-24T20:56:29.488Z,7.00
2018-09-24T20:59:03.209Z,7.00
2018-09-24T21:01:36.884Z,7.00
2018-09-24T21:04:10.514Z,6.90
2018-09-24T21:06:44.236Z,6.90
2018-09-24T21:09:17.919Z,6.90
2018-09-24T21:11:51.621Z,6.90
2018-09-24T21:14:25.248Z,6.90
2018-09-24T21:16:58.921Z,6.90
2018-09-24T21:19:32.536Z,6.90
2018-09-24T21:22:06.148Z,6.90
2018-09-24T21:24:39.928Z,6.90
2018-09-24T21:27:13.713Z,6.90
2018-09-24T21:29:47.445Z,6.90
2018-09-24T21:32:21.152Z,6.90
2018-09-24T21:34:54.886Z,6.90
2018-09-24T21:37:28.453Z,6.80
2018-09-24T21:40:02.075Z,6.80
2018-09-24T21:42:35.765Z,6.70
2018-09-24T21:45:09.550Z,6.70
2018-09-24T21:47:43.269Z,6.80
2018-09-24T21:50:17.081Z,6.80
2018-09-24T21:52:50.779Z,6.80
2018-09-24T21:55:24.341Z,6.80
2018-09-24T21:57:58.001Z,6.80
2018-09-24T22:00:31.720Z,6.80
2018-09-24T22:03:05.312Z,6.70
2018-09-24T22:05:38.948Z,6.70
2018-09-24T22:08:12.595Z,6.60
2018-09-24T22:10:46.300Z,6.60
2018-09-24T22:13:19.926Z,6.50
2018-09-24T22:15:53.524Z,6.50
2018-09-24T22:18:27.163Z,6.50
2018-09-24T22:21:00.909Z,6.50
2018-09-24T22:23:34.621Z,6.40
2018-09-24T22:26:08.341Z,6.50
2018-09-24T22:28:42.073Z,6.40
2018-09-24T22:31:15.840Z,6.50
2018-09-24T22:33:49.461Z,6.40
2018-09-24T22:36:23.130Z,6.50
2018-09-24T22:38:56.851Z,6.40
2018-09-24T22:41:30.608Z,6.50
2018-09-24T22:44:04.268Z,6.40
2018-09-24T22:46:38.066Z,6.40
2018-09-24T22:49:11.640Z,6.40
2018-09-24T22:51:45.357Z,6.30
2018-09-24T22:54:19.065Z,6.30
2018-09-24T22:56:52.804Z,6.30
2018-09-24T22:59:26.420Z,6.30
2018-09-24T23:02:00.161Z,6.30
2018-09-24T23:04:33.800Z,6.30
2018-09-24T23:07:07.553Z,6.20
2018-09-24T23:09:41.188Z,6.20
2018-09-24T23:12:14.984Z,6.20
2018-09-24T23:14:48.689Z,6.20
2018-09-24T23:17:22.435Z,6.10
2018-09-24T23:19:56.130Z,6.10
2018-09-24T23:22:29.873Z,6.10
2018-09-24T23:25:03.485Z,6.00
2018-09-24T23:27:37.177Z,6.00
2018-09-24T23:30:10.865Z,6.00
2018-09-24T23:32:44.636Z,6.00
2018-09-24T23:35:18.329Z,6.00
2018-09-24T23:37:52.009Z,5.90
2018-09-24T23:40:25.636Z,5.90
2018-09-24T23:42:59.422Z,5.90
2018-09-24T23:45:33.129Z,5.90
2018-09-24T23:48:06.775Z,5.90
2018-09-24T23:50:40.545Z,5.80
2018-09-24T23:53:14.265Z,5.80
2018-09-24T23:55:47.969Z,5.80
2018-09-24T23:58:21.555Z,5.80
